Time;durP1;ratioP1;P1;durP2;ratioP2;P2;SDS_P1;SDS_P2;PMS_P1;PMS_P2;Temp;Humidity;BMP_temperature;BMP_pressure;BME280_temperature;BME280_humidity;BME280_pressure;Samples;Min_cycle;Max_cycle;Signal;HPM_P1;HPM_P2
2022/04/27 00:02:13;;;;;;;5.00;4.50;;;14.70;69.40;;;;;;5093857;28;20469;-64
2022/04/27 00:04:40;;;;;;;4.67;4.27;;;14.70;69.50;;;;;;5094279;28;20458;-64
2022/04/27 00:07:07;;;;;;;5.05;4.55;;;14.70;69.60;;;;;;5094203;28;20823;-65
2022/04/27 00:09:34;;;;;;;5.93;4.50;;;14.60;69.80;;;;;;5093704;28;20310;-64
2022/04/27 00:12:02;;;;;;;5.37;4.40;;;14.60;70.00;;;;;;5094093;28;20227;-64
2022/04/27 00:14:31;;;;;;;4.82;4.43;;;14.60;70.10;;;;;;5093643;28;20804;-65
2022/04/27 00:16:59;;;;;;;7.03;4.78;;;14.60;70.30;;;;;;5093892;28;20303;-65
2022/04/27 00:19:27;;;;;;;5.03;4.53;;;14.50;70.50;;;;;;5095662;28;20218;-65
2022/04/27 00:21:54;;;;;;;5.17;4.73;;;14.50;70.50;;;;;;5100625;28;20497;-65
2022/04/27 00:24:20;;;;;;;4.67;4.27;;;14.50;70.80;;;;;;5092093;28;20480;-65
2022/04/27 00:26:47;;;;;;;4.63;4.30;;;14.40;71.00;;;;;;5093912;28;20492;-65
2022/04/27 00:29:14;;;;;;;5.33;4.87;;;14.40;71.20;;;;;;5093129;28;20477;-65
2022/04/27 00:31:42;;;;;;;4.60;4.20;;;14.40;71.60;;;;;;5090456;28;20470;-65
2022/04/27 00:34:09;;;;;;;4.45;4.05;;;14.30;71.80;;;;;;5093269;28;20481;-65
2022/04/27 00:36:36;;;;;;;5.33;4.33;;;14.20;72.10;;;;;;5093564;28;20672;-66
2022/04/27 00:39:03;;;;;;;5.18;4.78;;;14.20;72.10;;;;;;5093482;28;20815;-66
2022/04/27 00:41:30;;;;;;;4.10;3.80;;;14.20;72.50;;;;;;5093038;28;20220;-66
2022/04/27 00:43:57;;;;;;;4.90;4.50;;;14.10;72.60;;;;;;5093725;28;20226;-65
2022/04/27 00:46:24;;;;;;;6.03;4.85;;;14.10;72.80;;;;;;5092630;28;20274;-66
2022/04/27 00:48:52;;;;;;;7.20;5.00;;;14.10;73.10;;;;;;5093549;28;20219;-65
2022/04/27 00:51:22;;;;;;;5.90;4.70;;;14.10;73.20;;;;;;5092745;28;20469;-65
2022/04/27 00:53:49;;;;;;;5.40;4.90;;;14.00;73.50;;;;;;5093421;28;20569;-66
2022/04/27 00:56:18;;;;;;;5.57;5.07;;;14.00;73.70;;;;;;5092754;28;20235;-66
2022/04/27 00:58:47;;;;;;;5.82;5.38;;;13.90;73.70;;;;;;5093009;28;20677;-66
2022/04/27 01:01:14;;;;;;;6.50;5.18;;;13.90;73.90;;;;;;5091673;28;20223;-66
2022/04/27 01:03:42;;;;;;;4.72;4.30;;;13.80;73.90;;;;;;5091916;28;20742;-66
2022/04/27 01:06:10;;;;;;;6.40;5.80;;;13.80;74.10;;;;;;5091388;28;20587;-66
2022/04/27 01:08:37;;;;;;;5.18;4.13;;;13.70;74.50;;;;;;5093153;28;20657;-66
2022/04/27 01:11:04;;;;;;;5.13;4.63;;;13.60;74.70;;;;;;5092805;28;20297;-65
2022/04/27 01:13:31;;;;;;;5.80;4.65;;;13.60;74.90;;;;;;5092646;27;20215;-65
2022/04/27 01:15:57;;;;;;;6.25;5.45;;;13.60;75.00;;;;;;5092859;28;20223;-65
2022/04/27 01:18:25;;;;;;;6.10;5.15;;;13.50;75.30;;;;;;5090505;28;20255;-66
2022/04/27 01:20:53;;;;;;;5.57;5.18;;;13.40;75.60;;;;;;5091371;28;20219;-65
2022/04/27 01:23:20;;;;;;;7.90;6.28;;;13.30;75.80;;;;;;5092561;28;20234;-65
2022/04/27 01:25:52;;;;;;;6.68;5.68;;;13.30;76.10;;;;;;5091785;28;20219;-65
2022/04/27 01:28:21;;;;;;;5.18;4.68;;;13.30;76.50;;;;;;5084634;28;20246;-64
2022/04/27 01:30:49;;;;;;;5.65;5.15;;;13.20;76.60;;;;;;5092641;28;20219;-66
2022/04/27 01:33:17;;;;;;;6.85;6.25;;;13.10;77.10;;;;;;5089301;28;20223;-64
2022/04/27 01:35:44;;;;;;;5.50;4.90;;;13.10;77.50;;;;;;5092596;28;20310;-65
2022/04/27 01:38:12;;;;;;;6.40;5.63;;;13.00;77.60;;;;;;5092357;28;20229;-65
2022/04/27 01:40:39;;;;;;;6.40;5.35;;;13.00;78.00;;;;;;5092636;28;20220;-65
2022/04/27 01:43:06;;;;;;;7.20;6.35;;;12.90;78.40;;;;;;5092864;28;20234;-66
2022/04/27 01:45:33;;;;;;;6.47;5.60;;;12.90;78.40;;;;;;5092031;28;20219;-66
2022/04/27 01:48:00;;;;;;;7.30;6.22;;;12.90;78.80;;;;;;5092832;28;20565;-66
2022/04/27 01:50:26;;;;;;;5.50;5.05;;;12.90;78.90;;;;;;5091874;28;20250;-65
2022/04/27 01:55:39;;;;;;;5.95;5.35;;;12.70;79.80;;;;;;5092702;28;20269;-66
2022/04/27 01:58:06;;;;;;;6.78;6.07;;;12.70;80.00;;;;;;5092626;28;20223;-65
2022/04/27 02:00:34;;;;;;;7.72;6.55;;;12.60;80.20;;;;;;5092024;28;21703;-65
2022/04/27 02:03:01;;;;;;;7.75;6.45;;;12.60;80.60;;;;;;5092620;28;20211;-66
2022/04/27 02:05:28;;;;;;;7.53;6.35;;;12.50;80.80;;;;;;5092371;28;20681;-65
2022/04/27 02:07:55;;;;;;;7.30;6.60;;;12.50;81.10;;;;;;5092368;28;20223;-65
2022/04/27 02:10:22;;;;;;;8.00;7.20;;;12.40;81.50;;;;;;5092072;28;20231;-65
2022/04/27 02:12:50;;;;;;;7.85;6.57;;;12.40;82.20;;;;;;5092343;28;20219;-65
2022/04/27 02:15:17;;;;;;;6.28;5.40;;;12.30;82.50;;;;;;5091839;27;20237;-65
2022/04/27 02:17:43;;;;;;;8.73;7.55;;;12.30;82.60;;;;;;5092528;28;20222;-65
2022/04/27 02:20:11;;;;;;;6.63;6.03;;;12.20;82.80;;;;;;5100481;28;20217;-65
2022/04/27 02:22:39;;;;;;;10.27;8.18;;;12.20;82.90;;;;;;5093046;28;20298;-65
2022/04/27 02:25:07;;;;;;;7.63;6.85;;;12.20;82.80;;;;;;5090839;28;20315;-65
2022/04/27 02:27:34;;;;;;;8.30;6.25;;;12.20;83.20;;;;;;5083636;28;20700;-65
2022/04/27 02:30:02;;;;;;;7.60;6.85;;;12.10;83.00;;;;;;5092023;28;20258;-65
2022/04/27 02:32:29;;;;;;;8.05;6.53;;;12.10;83.60;;;;;;5088335;28;20572;-65
2022/04/27 02:34:55;;;;;;;8.88;8.07;;;12.00;83.70;;;;;;5092056;28;20688;-65
2022/04/27 02:37:22;;;;;;;6.97;6.40;;;12.00;83.70;;;;;;5091835;28;20243;-65
2022/04/27 02:39:49;;;;;;;6.90;6.30;;;12.00;83.80;;;;;;5092387;28;20682;-65
2022/04/27 02:42:17;;;;;;;8.25;6.75;;;11.90;84.10;;;;;;5088350;28;20219;-65
2022/04/27 02:44:44;;;;;;;7.50;6.80;;;11.90;84.20;;;;;;5093219;28;21262;-66
2022/04/27 02:47:12;;;;;;;8.05;7.25;;;11.90;84.20;;;;;;5095350;28;20219;-66
2022/04/27 02:52:23;;;;;;;8.27;7.45;;;11.80;84.50;;;;;;5093668;28;20389;-66
2022/04/27 02:54:50;;;;;;;8.25;7.45;;;11.80;84.70;;;;;;5092864;28;20219;-66
2022/04/27 02:57:17;;;;;;;9.40;8.40;;;11.80;84.80;;;;;;5095935;28;20229;-66
2022/04/27 02:59:44;;;;;;;8.20;7.28;;;11.70;84.80;;;;;;5095015;28;20234;-66
2022/04/27 03:02:12;;;;;;;7.85;6.95;;;11.80;85.00;;;;;;5095668;28;20568;-65
2022/04/27 03:04:39;;;;;;;8.27;7.43;;;11.70;85.20;;;;;;5095219;28;20224;-65
2022/04/27 03:07:06;;;;;;;7.60;6.88;;;11.80;85.20;;;;;;5094418;28;20215;-65
2022/04/27 03:09:33;;;;;;;12.10;8.32;;;11.70;85.10;;;;;;5095001;28;20234;-65
2022/04/27 03:12:00;;;;;;;10.18;6.90;;;11.80;85.30;;;;;;5095468;28;20219;-65
2022/04/27 03:14:28;;;;;;;9.98;8.27;;;11.80;85.40;;;;;;5094845;27;20230;-66
2022/04/27 03:16:56;;;;;;;7.78;6.57;;;11.70;85.40;;;;;;5095176;28;20241;-65
2022/04/27 03:19:24;;;;;;;7.80;7.03;;;11.70;85.40;;;;;;5095137;28;20211;-65
2022/04/27 03:21:51;;;;;;;8.48;7.68;;;11.70;85.40;;;;;;5102623;28;20223;-66
2022/04/27 03:24:18;;;;;;;8.18;7.38;;;11.70;85.50;;;;;;5094110;28;20592;-66
2022/04/27 03:26:47;;;;;;;7.85;7.03;;;11.70;86.30;;;;;;5093788;28;20227;-66
2022/04/27 03:29:14;;;;;;;8.82;7.95;;;11.70;85.60;;;;;;5095009;28;20216;-65
2022/04/27 03:31:40;;;;;;;8.15;6.82;;;11.70;85.80;;;;;;5091262;28;20231;-67
2022/04/27 03:34:07;;;;;;;8.27;7.45;;;11.70;86.00;;;;;;5081492;28;20219;-66
2022/04/27 03:36:35;;;;;;;9.75;8.73;;;11.60;85.90;;;;;;5094134;28;20219;-65
2022/04/27 03:39:02;;;;;;;8.85;7.95;;;11.60;86.00;;;;;;5094676;28;20223;-65
2022/04/27 03:41:29;;;;;;;11.77;8.32;;;11.60;86.00;;;;;;5094132;28;20227;-65
2022/04/27 03:43:56;;;;;;;8.77;7.88;;;11.60;86.00;;;;;;5095082;28;20219;-66
2022/04/27 03:46:23;;;;;;;10.30;8.45;;;11.50;86.10;;;;;;5094647;28;20219;-66
2022/04/27 03:48:50;;;;;;;8.60;7.78;;;11.50;86.50;;;;;;5094582;28;20219;-66
2022/04/27 03:51:17;;;;;;;8.70;7.78;;;11.50;86.50;;;;;;5094535;28;20226;-66
2022/04/27 03:53:45;;;;;;;8.25;7.45;;;11.50;86.70;;;;;;5090071;28;20223;-66
2022/04/27 03:56:12;;;;;;;9.07;8.32;;;11.50;86.90;;;;;;5093433;28;20223;-66
2022/04/27 03:58:39;;;;;;;8.18;7.22;;;11.50;87.00;;;;;;5094132;28;20306;-66
2022/04/27 04:01:06;;;;;;;8.65;7.70;;;11.50;87.00;;;;;;5094078;28;20231;-66
2022/04/27 04:03:32;;;;;;;9.32;7.72;;;11.40;87.20;;;;;;5093999;28;20227;-66
2022/04/27 04:05:59;;;;;;;10.85;8.70;;;11.40;87.10;;;;;;5094552;28;20610;-66
2022/04/27 04:08:26;;;;;;;8.80;8.00;;;11.40;87.20;;;;;;5093952;28;20224;-66
2022/04/27 04:10:54;;;;;;;8.13;7.03;;;11.50;87.00;;;;;;5094085;28;20227;-66
2022/04/27 04:13:22;;;;;;;8.10;7.28;;;11.50;87.00;;;;;;5094229;28;20220;-66
2022/04/27 04:15:49;;;;;;;9.13;8.15;;;11.40;87.10;;;;;;5093494;27;20571;-65
2022/04/27 04:18:16;;;;;;;8.18;7.35;;;11.50;87.20;;;;;;5093002;28;20255;-65
2022/04/27 04:20:46;;;;;;;8.13;7.38;;;11.40;87.10;;;;;;5104393;27;20225;-65
2022/04/27 04:23:13;;;;;;;15.32;8.02;;;11.50;87.00;;;;;;5093551;28;20219;-64
2022/04/27 04:28:31;;;;;;;9.23;8.18;;;11.40;87.10;;;;;;5093550;28;20361;-65
2022/04/27 04:30:59;;;;;;;8.75;7.85;;;11.40;87.30;;;;;;5079754;28;20223;-65
2022/04/27 04:33:26;;;;;;;9.68;7.88;;;11.40;87.10;;;;;;5089084;28;20233;-64
2022/04/27 04:35:53;;;;;;;8.65;7.90;;;11.40;87.10;;;;;;5093158;28;20227;-65
2022/04/27 04:38:20;;;;;;;9.43;8.07;;;11.40;87.10;;;;;;5093658;28;20231;-65
2022/04/27 04:40:46;;;;;;;7.53;6.65;;;11.40;87.20;;;;;;5093139;28;20226;-65
2022/04/27 04:43:13;;;;;;;7.82;7.15;;;11.50;87.30;;;;;;5093738;28;20223;-65
2022/04/27 04:45:41;;;;;;;11.93;9.10;;;11.50;87.60;;;;;;5093265;28;20573;-65
2022/04/27 04:48:09;;;;;;;14.15;10.50;;;11.50;87.40;;;;;;5093418;28;20227;-64
2022/04/27 04:50:36;;;;;;;15.63;11.82;;;11.60;87.60;;;;;;5092985;28;20227;-65
2022/04/27 04:53:03;;;;;;;13.85;11.00;;;11.60;87.70;;;;;;5092163;28;20223;-64
2022/04/27 04:55:30;;;;;;;12.95;11.48;;;11.70;87.90;;;;;;5091682;28;20235;-65
2022/04/27 04:57:57;;;;;;;10.52;9.48;;;11.70;87.80;;;;;;5093013;28;20219;-64
2022/04/27 05:00:24;;;;;;;12.40;10.90;;;11.70;87.60;;;;;;5093412;28;20716;-64
2022/04/27 05:02:52;;;;;;;8.98;8.07;;;11.70;87.40;;;;;;5091755;28;20232;-65
2022/04/27 05:05:19;;;;;;;10.68;9.57;;;11.80;87.10;;;;;;5093375;28;20223;-65
2022/04/27 05:07:46;;;;;;;13.52;10.07;;;11.80;86.70;;;;;;5091626;28;20260;-65
2022/04/27 05:10:13;;;;;;;10.88;9.30;;;11.90;86.80;;;;;;5092994;28;20619;-65
2022/04/27 05:12:40;;;;;;;14.65;11.25;;;11.90;86.60;;;;;;5092742;28;20232;-65
2022/04/27 05:15:08;;;;;;;11.93;10.00;;;11.90;86.50;;;;;;5093053;27;20212;-65
2022/04/27 05:17:35;;;;;;;12.73;10.23;;;12.00;86.50;;;;;;5092858;28;20298;-65
2022/04/27 05:20:04;;;;;;;10.52;9.32;;;12.00;86.60;;;;;;5087761;28;20211;-64
2022/04/27 05:22:34;;;;;;;11.75;8.95;;;12.10;86.50;;;;;;5092862;28;20223;-65
2022/04/27 05:25:03;;;;;;;10.32;8.32;;;12.10;85.90;;;;;;5091164;28;20226;-66
2022/04/27 05:27:30;;;;;;;14.77;11.30;;;12.20;85.50;;;;;;5092997;28;20571;-64
2022/04/27 05:32:41;;;;;;;11.13;10.02;;;12.30;85.40;;;;;;5079808;28;20385;-65
2022/04/27 05:35:10;;;;;;;13.95;10.73;;;12.30;85.30;;;;;;5092738;28;20534;-65
2022/04/27 05:37:38;;;;;;;11.27;9.10;;;12.30;85.40;;;;;;5092913;28;20215;-65
2022/04/27 05:40:06;;;;;;;8.80;7.93;;;12.40;85.00;;;;;;5092447;28;20219;-65
2022/04/27 05:42:33;;;;;;;10.10;8.05;;;12.50;84.90;;;;;;5092738;28;20227;-64
2022/04/27 05:45:00;;;;;;;15.30;13.77;;;12.50;84.90;;;;;;5092439;28;20230;-65
2022/04/27 05:47:27;;;;;;;12.13;9.55;;;12.60;84.80;;;;;;5092678;28;20230;-65
2022/04/27 05:49:54;;;;;;;9.07;8.23;;;12.60;84.80;;;;;;5092235;28;20226;-65
2022/04/27 05:52:22;;;;;;;14.32;11.77;;;12.70;84.40;;;;;;5091924;28;20255;-65
2022/04/27 05:54:51;;;;;;;9.50;8.60;;;12.80;84.30;;;;;;5092174;28;20219;-65
2022/04/27 05:57:18;;;;;;;9.52;8.55;;;12.90;83.30;;;;;;5091577;28;20273;-65
2022/04/27 05:59:45;;;;;;;9.18;8.23;;;13.00;81.50;;;;;;5092066;28;20227;-65
2022/04/27 06:02:12;;;;;;;10.52;9.52;;;13.00;81.20;;;;;;5092549;28;20223;-65
2022/04/27 06:04:39;;;;;;;8.77;7.47;;;13.10;80.30;;;;;;5092526;28;20242;-65
2022/04/27 06:07:08;;;;;;;8.98;8.05;;;13.10;79.70;;;;;;5092263;28;20223;-65
2022/04/27 06:09:36;;;;;;;10.98;7.85;;;13.20;79.40;;;;;;5092413;28;20284;-65
2022/04/27 06:12:05;;;;;;;7.75;7.05;;;13.30;79.10;;;;;;5091876;28;20235;-65
2022/04/27 06:14:32;;;;;;;10.25;8.98;;;13.30;78.90;;;;;;5092436;27;20314;-65
2022/04/27 06:16:58;;;;;;;10.38;9.27;;;13.30;78.80;;;;;;5091964;28;20228;-65
2022/04/27 06:19:25;;;;;;;10.52;9.07;;;13.40;78.50;;;;;;5094020;28;20215;-65
2022/04/27 06:21:52;;;;;;;9.40;8.43;;;13.40;78.30;;;;;;5103695;27;20254;-66
2022/04/27 06:24:19;;;;;;;10.18;9.10;;;13.40;78.00;;;;;;5094769;28;20231;-64
2022/04/27 06:26:47;;;;;;;9.23;8.38;;;13.40;77.50;;;;;;5096216;28;20362;-64
2022/04/27 06:29:14;;;;;;;14.57;8.20;;;13.50;77.20;;;;;;5096166;28;20223;-65
2022/04/27 06:31:40;;;;;;;8.43;7.63;;;13.50;76.80;;;;;;5092958;28;20474;-65
2022/04/27 06:34:07;;;;;;;8.25;7.45;;;13.60;76.60;;;;;;5095428;28;20232;-66
2022/04/27 06:36:36;;;;;;;7.78;6.22;;;13.60;76.00;;;;;;5096145;28;20558;-64
2022/04/27 06:39:04;;;;;;;9.05;8.13;;;13.70;76.10;;;;;;5082075;28;20618;-65
2022/04/27 06:41:31;;;;;;;7.82;7.10;;;13.80;76.00;;;;;;5095967;28;20231;-64
2022/04/27 06:43:59;;;;;;;9.57;8.68;;;13.80;76.20;;;;;;5095748;28;20581;-65
2022/04/27 06:46:26;;;;;;;9.50;8.52;;;13.90;76.00;;;;;;5095790;28;20227;-65
2022/04/27 06:48:55;;;;;;;8.60;7.53;;;14.00;75.40;;;;;;5095490;28;20219;-64
2022/04/27 06:51:22;;;;;;;10.38;8.45;;;14.10;75.20;;;;;;5095608;28;20231;-65
2022/04/27 06:53:49;;;;;;;16.53;8.67;;;14.10;74.10;;;;;;5095197;28;20720;-65
2022/04/27 06:56:17;;;;;;;7.70;7.00;;;14.20;73.80;;;;;;5086035;28;20489;-65
2022/04/27 06:58:44;;;;;;;7.43;6.77;;;14.30;73.40;;;;;;5095460;28;20541;-65
2022/04/27 07:01:13;;;;;;;8.70;7.90;;;14.30;73.00;;;;;;5095013;28;20504;-65
2022/04/27 07:03:42;;;;;;;8.68;7.35;;;14.40;73.00;;;;;;5078414;28;20546;-65
2022/04/27 07:06:08;;;;;;;8.50;7.60;;;14.40;73.00;;;;;;5073998;28;20219;-65
2022/04/27 07:08:36;;;;;;;8.40;7.50;;;14.50;73.20;;;;;;5074344;28;20472;-65
2022/04/27 07:11:02;;;;;;;11.57;7.40;;;14.60;72.80;;;;;;5073727;28;20552;-64
2022/04/27 07:13:29;;;;;;;8.80;7.47;;;14.70;72.90;;;;;;5079178;28;20462;-64
2022/04/27 07:16:00;;;;;;;8.73;7.83;;;14.80;72.70;;;;;;5094239;28;20469;-65
2022/04/27 07:18:32;;;;;;;8.33;7.53;;;14.90;72.20;;;;;;5094901;28;20465;-65
2022/04/27 07:21:00;;;;;;;10.13;7.40;;;15.00;72.00;;;;;;5094784;28;20462;-65
2022/04/27 07:23:27;;;;;;;8.23;7.43;;;15.10;71.80;;;;;;5095381;28;20461;-64
2022/04/27 07:25:54;;;;;;;8.03;7.23;;;15.20;70.70;;;;;;5095067;28;20823;-65
2022/04/27 07:28:21;;;;;;;8.80;6.87;;;15.30;70.40;;;;;;5095045;28;20469;-65
2022/04/27 07:30:48;;;;;;;8.27;7.10;;;15.40;69.20;;;;;;5095037;28;20482;-64
2022/04/27 07:33:15;;;;;;;9.43;8.63;;;15.50;68.70;;;;;;5095152;28;20460;-65
2022/04/27 07:35:44;;;;;;;11.30;10.00;;;15.50;68.90;;;;;;5095133;28;20465;-64
2022/04/27 07:38:10;;;;;;;9.50;8.60;;;15.60;68.70;;;;;;5094796;28;20587;-64
2022/04/27 07:40:37;;;;;;;7.57;6.80;;;15.60;68.80;;;;;;5095108;28;20560;-65
2022/04/27 07:43:04;;;;;;;7.23;6.50;;;15.70;68.70;;;;;;5094542;28;20496;-64
2022/04/27 07:45:31;;;;;;;7.80;7.03;;;15.80;67.80;;;;;;5095137;28;20812;-64
2022/04/27 07:47:58;;;;;;;8.10;7.30;;;15.80;67.50;;;;;;5094378;28;20485;-65
2022/04/27 07:50:25;;;;;;;8.20;7.40;;;15.80;67.40;;;;;;5094777;28;20473;-65
2022/04/27 07:52:56;;;;;;;8.40;5.23;;;15.90;67.30;;;;;;5094313;28;20469;-65
2022/04/27 07:55:23;;;;;;;8.20;5.73;;;15.90;67.00;;;;;;5094846;28;20512;-65
2022/04/27 07:57:51;;;;;;;7.80;5.60;;;16.00;66.20;;;;;;5094752;28;20470;-64
2022/04/27 08:00:18;;;;;;;5.57;5.00;;;16.00;65.00;;;;;;5094287;28;20468;-64
2022/04/27 08:02:45;;;;;;;7.93;7.13;;;16.10;64.60;;;;;;5094566;28;20500;-64
2022/04/27 08:05:12;;;;;;;7.07;6.37;;;16.20;64.30;;;;;;5094099;28;20476;-65
2022/04/27 08:07:40;;;;;;;7.60;6.70;;;16.20;64.20;;;;;;5094567;28;20781;-64
2022/04/27 08:10:13;;;;;;;6.23;5.63;;;16.20;63.00;;;;;;5094104;28;20469;-64
2022/04/27 08:12:43;;;;;;;4.90;4.40;;;16.30;61.60;;;;;;5094365;28;20811;-65
2022/04/27 08:15:10;;;;;;;4.90;4.50;;;16.40;61.20;;;;;;5094012;28;20476;-64
2022/04/27 08:17:50;;;;;;;5.90;5.13;;;16.50;61.20;;;;;;5094166;28;20547;-65
2022/04/27 08:23:06;;;;;;;3.77;3.47;;;16.60;59.70;;;;;;5093743;28;21170;-64
2022/04/27 08:25:36;;;;;;;7.53;6.83;;;16.70;59.20;;;;;;5094235;28;20466;-64
2022/04/27 08:28:06;;;;;;;5.13;4.63;;;16.70;59.10;;;;;;5093476;28;20470;-64
2022/04/27 08:30:34;;;;;;;7.63;5.37;;;16.80;59.00;;;;;;5093319;28;20469;-65
2022/04/27 08:33:01;;;;;;;4.50;3.67;;;16.70;59.00;;;;;;5093049;28;20824;-65
2022/04/27 08:35:28;;;;;;;3.20;2.90;;;16.80;58.10;;;;;;5093753;28;20483;-64
2022/04/27 08:37:56;;;;;;;4.87;4.40;;;16.90;57.60;;;;;;5093580;28;20470;-64
2022/04/27 08:40:24;;;;;;;9.97;9.07;;;16.90;56.40;;;;;;5093814;28;20458;-64
2022/04/27 08:42:53;;;;;;;6.60;5.47;;;17.00;56.70;;;;;;5093337;28;20475;-65
2022/04/27 08:45:21;;;;;;;4.63;4.13;;;17.00;56.60;;;;;;5093426;28;20487;-65
2022/04/27 08:47:48;;;;;;;3.60;3.30;;;17.10;56.70;;;;;;5093740;28;20468;-64
2022/04/27 08:50:17;;;;;;;4.73;3.90;;;17.10;56.50;;;;;;5093335;28;20461;-65
2022/04/27 08:52:45;;;;;;;7.00;2.93;;;17.20;55.70;;;;;;5093591;28;20462;-63
2022/04/27 08:55:13;;;;;;;3.60;3.30;;;17.30;55.50;;;;;;5093244;28;20493;-65
2022/04/27 08:57:40;;;;;;;5.70;3.70;;;17.30;55.10;;;;;;5093695;28;20471;-65
2022/04/27 09:00:12;;;;;;;4.00;3.63;;;17.40;55.30;;;;;;5092935;28;20473;-65
2022/04/27 09:02:39;;;;;;;5.67;3.03;;;17.40;54.90;;;;;;5093422;28;20482;-65
2022/04/27 09:05:10;;;;;;;5.00;3.83;;;17.40;55.00;;;;;;5093033;28;20472;-65
2022/04/27 09:07:38;;;;;;;2.80;2.50;;;17.50;55.30;;;;;;5093507;28;20483;-64
2022/04/27 09:10:07;;;;;;;3.73;3.43;;;17.50;54.70;;;;;;5092997;28;20460;-65
2022/04/27 09:12:35;;;;;;;3.57;3.30;;;17.50;54.50;;;;;;5093432;28;20784;-65
2022/04/27 09:15:06;;;;;;;4.07;3.67;;;17.60;54.60;;;;;;5092793;28;20535;-65
2022/04/27 09:23:06;;;;;;;3.67;3.40;;;17.70;53.50;;;;;;5092947;28;20471;-65
2022/04/27 09:25:34;;;;;;;2.93;2.73;;;17.70;52.90;;;;;;5093393;28;20965;-65
2022/04/27 09:28:03;;;;;;;2.87;2.67;;;17.80;52.50;;;;;;5092654;28;20464;-65
2022/04/27 09:30:31;;;;;;;2.63;2.30;;;17.70;52.20;;;;;;5092935;28;20946;-65
2022/04/27 09:32:59;;;;;;;2.83;2.00;;;17.70;52.10;;;;;;5092939;28;20469;-65
2022/04/27 09:35:34;;;;;;;3.80;2.17;;;17.70;51.80;;;;;;5092760;28;20471;-65
2022/04/27 09:38:15;;;;;;;2.90;2.40;;;17.80;50.90;;;;;;5093120;28;20479;-65
2022/04/27 09:40:47;;;;;;;2.50;2.30;;;17.80;50.10;;;;;;5093409;28;20460;-65
2022/04/27 09:43:15;;;;;;;2.70;2.50;;;17.80;50.00;;;;;;5092652;28;20980;-65
2022/04/27 09:45:42;;;;;;;2.53;2.33;;;17.90;50.10;;;;;;5093008;28;20474;-65
2022/04/27 09:48:18;;;;;;;2.20;2.00;;;17.90;50.10;;;;;;5092315;28;21091;-65
2022/04/27 09:50:49;;;;;;;4.60;2.70;;;18.00;50.00;;;;;;5092713;28;20469;-65
2022/04/27 09:53:17;;;;;;;4.40;2.80;;;18.00;50.00;;;;;;5092697;28;20472;-65
2022/04/27 09:55:47;;;;;;;3.07;2.53;;;18.10;50.00;;;;;;5095996;28;20465;-65
2022/04/27 09:58:15;;;;;;;4.73;2.57;;;18.10;50.10;;;;;;5096436;28;20465;-65
2022/04/27 10:00:43;;;;;;;2.97;2.67;;;18.10;50.00;;;;;;5096997;28;20462;-65
2022/04/27 10:03:14;;;;;;;5.87;5.07;;;18.10;49.30;;;;;;5096409;28;20518;-65
2022/04/27 10:05:42;;;;;;;3.50;3.20;;;18.10;49.30;;;;;;5096956;28;20604;-65
2022/04/27 10:08:09;;;;;;;2.40;2.30;;;18.10;49.10;;;;;;5096684;28;20457;-63
2022/04/27 10:10:38;;;;;;;2.80;2.00;;;18.00;48.70;;;;;;5096672;28;20464;-66
2022/04/27 10:13:09;;;;;;;2.63;1.90;;;18.00;48.60;;;;;;5096248;28;20974;-66
2022/04/27 10:15:37;;;;;;;2.10;2.00;;;18.00;48.60;;;;;;5096879;28;20464;-65
2022/04/27 10:18:04;;;;;;;2.97;2.30;;;18.00;48.10;;;;;;5096180;28;20473;-65
2022/04/27 10:20:34;;;;;;;3.00;2.70;;;18.00;48.20;;;;;;5096627;28;20473;-66
2022/04/27 10:23:24;;;;;;;4.03;3.40;;;18.10;48.40;;;;;;5096103;28;20483;-65
2022/04/27 10:26:17;;;;;;;2.70;2.50;;;18.20;47.90;;;;;;5096541;28;20799;-64
2022/04/27 10:28:48;;;;;;;2.47;2.27;;;18.20;47.90;;;;;;5096402;28;20551;-65
2022/04/27 10:31:15;;;;;;;2.87;2.67;;;18.30;48.00;;;;;;5096457;28;20465;-64
2022/04/27 10:33:50;;;;;;;4.40;2.90;;;18.30;48.40;;;;;;5095907;28;20515;-65
2022/04/27 10:36:23;;;;;;;3.40;3.10;;;18.40;49.20;;;;;;5096197;28;20522;-64
2022/04/27 10:39:23;;;;;;;3.10;2.80;;;18.40;49.40;;;;;;5095935;28;20833;-65
2022/04/27 10:41:56;;;;;;;3.40;3.10;;;18.40;49.10;;;;;;5033397;28;20986;-65
2022/04/27 10:44:43;;;;;;;4.40;2.40;;;18.40;49.00;;;;;;5034016;28;21047;-64
2022/04/27 10:47:16;;;;;;;2.70;2.50;;;18.40;48.90;;;;;;5073183;28;20535;-64
2022/04/27 10:49:43;;;;;;;3.47;2.60;;;18.40;48.80;;;;;;5096005;28;20480;-65
2022/04/27 10:52:11;;;;;;;4.60;3.47;;;18.50;48.00;;;;;;5095838;28;20554;-65
2022/04/27 10:54:39;;;;;;;2.33;2.17;;;18.50;47.60;;;;;;5095553;28;20472;-65
2022/04/27 10:57:41;;;;;;;6.23;3.30;;;18.60;48.00;;;;;;5088210;28;20820;-65
2022/04/27 11:00:09;;;;;;;3.63;2.70;;;18.60;48.70;;;;;;5092867;28;20547;-65
2022/04/27 11:02:39;;;;;;;2.50;2.30;;;18.60;48.60;;;;;;5075460;28;20470;-65
2022/04/27 11:05:19;;;;;;;3.00;2.70;;;18.60;48.30;;;;;;5082102;28;20461;-63
2022/04/27 11:07:54;;;;;;;2.40;2.13;;;18.60;48.80;;;;;;5095845;28;20470;-64
2022/04/27 11:10:21;;;;;;;2.40;2.00;;;18.50;48.10;;;;;;5095236;28;20783;-63
2022/04/27 11:12:50;;;;;;;3.40;2.43;;;18.60;48.10;;;;;;5094489;28;20501;-65
2022/04/27 11:15:21;;;;;;;2.73;2.53;;;18.60;47.50;;;;;;5094759;28;20465;-65
2022/04/27 11:17:55;;;;;;;2.30;2.10;;;18.60;47.10;;;;;;5095430;28;20469;-65
2022/04/27 11:20:28;;;;;;;3.10;2.80;;;18.60;46.90;;;;;;5076767;28;20854;-65
2022/04/27 11:22:56;;;;;;;4.43;2.50;;;18.70;47.00;;;;;;5075196;28;20481;-65
2022/04/27 11:25:28;;;;;;;8.50;6.87;;;18.70;46.50;;;;;;5074623;28;20484;-64
2022/04/27 11:27:55;;;;;;;6.77;3.13;;;18.70;47.10;;;;;;5075569;28;20492;-66
2022/04/27 11:30:23;;;;;;;5.70;3.20;;;18.80;47.20;;;;;;5079630;28;20476;-64
2022/04/27 11:32:50;;;;;;;5.13;3.93;;;18.70;47.30;;;;;;5094983;28;20506;-64
2022/04/27 11:35:24;;;;;;;2.27;2.07;;;18.70;47.40;;;;;;5094661;28;20476;-65
2022/04/27 11:37:53;;;;;;;2.93;2.73;;;18.70;46.90;;;;;;5095342;28;20488;-64
2022/04/27 11:40:25;;;;;;;2.93;2.40;;;18.70;46.70;;;;;;5094644;28;20479;-65
2022/04/27 11:42:53;;;;;;;2.40;2.20;;;18.70;46.50;;;;;;5095091;28;20497;-64
2022/04/27 11:45:21;;;;;;;6.80;2.97;;;18.70;46.70;;;;;;5094619;28;20465;-65
2022/04/27 11:47:57;;;;;;;3.20;2.80;;;18.70;47.00;;;;;;5094917;28;20819;-65
2022/04/27 11:50:25;;;;;;;3.60;3.30;;;18.80;46.50;;;;;;5094435;28;20515;-65
2022/04/27 11:53:03;;;;;;;3.10;2.63;;;18.80;46.70;;;;;;5094785;28;20512;-65
2022/04/27 11:55:31;;;;;;;5.23;3.00;;;18.90;47.50;;;;;;5094910;28;20467;-65
2022/04/27 11:57:58;;;;;;;4.53;2.70;;;18.90;47.40;;;;;;5087919;28;20459;-65
2022/04/27 12:00:27;;;;;;;4.13;3.30;;;18.90;47.20;;;;;;5074062;28;20458;-64
2022/04/27 12:02:54;;;;;;;3.50;3.20;;;18.90;47.40;;;;;;5074481;28;20458;-65
2022/04/27 12:05:32;;;;;;;3.70;3.20;;;18.80;47.70;;;;;;5085900;28;20457;-65
2022/04/27 12:08:01;;;;;;;5.43;3.60;;;18.80;48.00;;;;;;5094558;28;20556;-65
2022/04/27 12:10:29;;;;;;;4.20;3.80;;;18.80;48.20;;;;;;5094161;28;20468;-65
2022/04/27 12:13:00;;;;;;;3.27;3.00;;;18.80;47.90;;;;;;5094323;28;20534;-64
2022/04/27 12:15:27;;;;;;;3.30;2.67;;;18.80;47.30;;;;;;5093984;28;20921;-64
2022/04/27 12:17:56;;;;;;;2.90;2.30;;;18.80;46.60;;;;;;5093445;28;20469;-65
2022/04/27 12:20:26;;;;;;;2.70;2.37;;;18.80;46.10;;;;;;5094079;28;20465;-64
2022/04/27 12:22:55;;;;;;;3.13;2.37;;;18.80;46.30;;;;;;5094281;28;20468;-64
2022/04/27 12:25:22;;;;;;;7.53;4.40;;;18.90;46.60;;;;;;5093810;28;20470;-64
2022/04/27 12:27:51;;;;;;;3.93;3.63;;;19.00;46.90;;;;;;5094275;28;20472;-64
2022/04/27 12:30:21;;;;;;;4.77;4.27;;;19.10;47.20;;;;;;5093679;28;20469;-64
2022/04/27 12:32:49;;;;;;;5.47;4.97;;;19.20;47.50;;;;;;5093627;28;20511;-64
2022/04/27 12:38:12;;;;;;;4.00;3.70;;;19.40;47.10;;;;;;5094147;28;20468;-64
2022/04/27 12:40:42;;;;;;;3.77;3.27;;;19.50;46.80;;;;;;5093752;28;20799;-64
2022/04/27 12:43:11;;;;;;;4.97;4.10;;;19.50;46.50;;;;;;5093988;28;20473;-64
2022/04/27 12:45:39;;;;;;;4.33;3.90;;;19.50;46.70;;;;;;5091462;28;20458;-64
2022/04/27 12:48:06;;;;;;;2.90;2.50;;;19.50;47.10;;;;;;5078601;28;20465;-63
2022/04/27 12:50:34;;;;;;;3.40;2.00;;;19.50;47.20;;;;;;5087541;28;20484;-64
2022/04/27 12:53:09;;;;;;;3.10;2.77;;;19.40;47.30;;;;;;5092643;28;20466;-64
2022/04/27 12:55:38;;;;;;;6.40;3.27;;;19.40;46.90;;;;;;5078871;28;20815;-64
2022/04/27 12:58:05;;;;;;;6.70;5.97;;;19.40;46.80;;;;;;5072759;28;20469;-64
2022/04/27 13:00:40;;;;;;;6.57;5.73;;;19.30;46.50;;;;;;5072735;28;20803;-63
2022/04/27 13:03:09;;;;;;;5.63;4.70;;;19.30;46.70;;;;;;5072994;28;20982;-64
2022/04/27 13:05:37;;;;;;;5.40;3.43;;;19.20;46.60;;;;;;5074802;28;20531;-64
2022/04/27 13:08:05;;;;;;;7.57;3.50;;;19.20;46.40;;;;;;5094628;28;20462;-65
2022/04/27 13:13:18;;;;;;;3.57;3.00;;;19.20;46.40;;;;;;5084142;28;20480;-64
2022/04/27 13:15:46;;;;;;;2.60;2.40;;;19.20;46.50;;;;;;5077383;28;20454;-64
2022/04/27 13:18:13;;;;;;;4.23;2.50;;;19.20;46.50;;;;;;5071707;28;20481;-64